Terminal Aerodrome Forecast
Issued by NWS

Current Version | Previous Version | Text Only | Print | Product List | Glossary On
Versions: 1 2 3 4 5 6 7 8 9 10 11 12 13 14 15 16 17
000
FTUS46 KSEW 182300
TAFCLM
TAF
KCLM 182330Z 1900/1924 VRB03KT P6SM SCT070 OVC120
     FM190300 VRB03KT 3SM -RA BR SCT012 OVC020
     FM190700 25005KT P6SM VCSH SCT035 BKN050=

USA.gov is the U.S. government's official web portal to all federal, state and local government web resources and services.